createdAt,value
2023-05-17T00:00:31.686Z,0.43
2023-05-17T00:02:58.830Z,0.10
2023-05-17T00:05:25.984Z,0.10
2023-05-17T00:07:53.040Z,0.10
2023-05-17T00:10:19.999Z,1.65
2023-05-17T00:12:47.044Z,0.65
2023-05-17T00:15:14.890Z,0.50
2023-05-17T00:17:41.934Z,0.25
2023-05-17T00:20:09.426Z,0.10
2023-05-17T00:22:36.641Z,0.35
2023-05-17T00:25:04.197Z,1.13
2023-05-17T00:27:31.252Z,0.35
2023-05-17T00:29:58.337Z,0.20
2023-05-17T00:32:25.392Z,0.28
2023-05-17T00:34:52.447Z,0.45
2023-05-17T00:37:19.459Z,0.10
2023-05-17T00:39:46.391Z,0.13
2023-05-17T00:42:14.477Z,0.17
2023-05-17T00:44:41.485Z,0.10
2023-05-17T00:47:08.555Z,0.17
2023-05-17T00:49:35.696Z,0.93
2023-05-17T00:52:02.703Z,0.32
2023-05-17T00:54:30.501Z,0.82
2023-05-17T00:56:57.998Z,0.65
2023-05-17T00:59:26.249Z,0.22
2023-05-17T01:01:54.074Z,0.60
2023-05-17T01:04:21.389Z,0.35
2023-05-17T01:06:48.498Z,2.15
2023-05-17T01:09:15.570Z,0.00
2023-05-17T01:11:48.581Z,0.20
2023-05-17T01:14:46.190Z,0.30
2023-05-17T01:17:18.819Z,0.25
2023-05-17T01:19:59.453Z,0.10
2023-05-17T01:23:11.249Z,0.68
2023-05-17T01:26:09.388Z,0.20
2023-05-17T01:28:39.244Z,0.32
2023-05-17T01:31:08.451Z,0.22
2023-05-17T01:33:36.411Z,0.45
2023-05-17T01:36:03.466Z,0.47
2023-05-17T01:38:30.453Z,0.57
2023-05-17T01:41:23.419Z,0.52
2023-05-17T01:44:00.949Z,0.00
2023-05-17T01:46:39.899Z,0.17
2023-05-17T01:49:12.559Z,2.08
2023-05-17T01:51:49.500Z,0.08
2023-05-17T01:54:22.975Z,0.20
2023-05-17T01:56:57.667Z,0.10
2023-05-17T01:59:27.826Z,0.00
2023-05-17T02:01:57.378Z,0.82
2023-05-17T02:04:24.340Z,0.08
2023-05-17T02:06:51.422Z,0.52
2023-05-17T02:09:18.436Z,0.17
2023-05-17T02:11:45.466Z,0.32
2023-05-17T02:14:12.369Z,0.38
2023-05-17T02:16:39.812Z,0.20
2023-05-17T02:19:09.146Z,0.32
2023-05-17T02:21:36.213Z,0.30
2023-05-17T02:24:03.956Z,0.60
2023-05-17T02:26:31.753Z,0.10
2023-05-17T02:28:59.108Z,0.45
2023-05-17T02:31:26.962Z,1.02
2023-05-17T02:33:54.756Z,1.35
2023-05-17T02:36:21.858Z,0.57
2023-05-17T02:38:48.809Z,0.10
2023-05-17T02:41:15.774Z,0.08
2023-05-17T02:43:42.735Z,0.20
2023-05-17T02:46:09.645Z,0.10
2023-05-17T02:48:36.731Z,0.43
2023-05-17T02:51:03.696Z,0.52
2023-05-17T02:53:30.644Z,0.20
2023-05-17T02:56:00.591Z,0.08
2023-05-17T02:58:27.936Z,0.38
2023-05-17T03:00:54.901Z,0.95
2023-05-17T03:03:21.983Z,0.13
2023-05-17T03:05:48.997Z,0.85
2023-05-17T03:08:15.985Z,0.03
2023-05-17T03:10:42.910Z,0.03
2023-05-17T03:13:10.043Z,0.20
2023-05-17T03:15:36.952Z,0.22
2023-05-17T03:18:03.980Z,0.05
2023-05-17T03:20:31.097Z,0.10
2023-05-17T03:22:58.649Z,0.50
2023-05-17T03:25:25.622Z,0.20
2023-05-17T03:27:52.637Z,1.75
2023-05-17T03:30:19.956Z,1.27
2023-05-17T03:32:47.052Z,1.08
2023-05-17T03:35:14.066Z,0.88
2023-05-17T03:37:41.107Z,0.82
2023-05-17T03:40:08.524Z,0.88
2023-05-17T03:42:35.496Z,1.58
2023-05-17T03:45:02.550Z,0.90
2023-05-17T03:47:29.498Z,3.95
2023-05-17T03:49:56.465Z,1.90
2023-05-17T03:52:23.406Z,1.88
2023-05-17T03:54:51.452Z,0.95
2023-05-17T03:57:19.676Z,1.33
2023-05-17T03:59:47.207Z,0.25
2023-05-17T04:02:16.749Z,0.68
2023-05-17T04:04:53.320Z,1.48
2023-05-17T04:07:20.666Z,0.30
2023-05-17T04:09:47.729Z,0.70
2023-05-17T04:12:15.189Z,0.50
2023-05-17T04:14:42.116Z,0.40
2023-05-17T04:17:08.997Z,0.20
2023-05-17T04:19:35.946Z,1.58
2023-05-17T04:22:02.958Z,0.55
2023-05-17T04:24:29.940Z,0.03
2023-05-17T04:26:57.128Z,0.52
2023-05-17T04:29:24.108Z,0.63
2023-05-17T04:31:51.251Z,1.02
2023-05-17T04:34:18.245Z,0.50
2023-05-17T04:36:45.107Z,0.00
2023-05-17T04:39:12.157Z,0.63
2023-05-17T04:41:39.120Z,0.17
2023-05-17T04:44:07.612Z,0.13
2023-05-17T04:46:34.578Z,0.60
2023-05-17T04:49:02.907Z,0.40
2023-05-17T04:51:33.125Z,0.00
2023-05-17T04:54:01.197Z,0.85
2023-05-17T04:56:29.215Z,0.20
2023-05-17T04:58:56.084Z,0.70
2023-05-17T05:01:23.026Z,1.02
2023-05-17T05:03:50.053Z,2.33
2023-05-17T05:06:17.016Z,0.20
2023-05-17T05:08:44.063Z,0.20
2023-05-17T05:11:10.975Z,0.22
2023-05-17T05:13:39.079Z,0.25
2023-05-17T05:16:06.556Z,0.10
2023-05-17T05:18:33.785Z,0.00
2023-05-17T05:21:01.192Z,0.10
2023-05-17T05:23:28.153Z,0.60
2023-05-17T05:25:55.364Z,0.05
2023-05-17T05:28:22.238Z,0.65
2023-05-17T05:30:49.262Z,0.00
2023-05-17T05:33:16.323Z,0.30
2023-05-17T05:35:43.527Z,0.20
2023-05-17T05:38:10.637Z,0.52
2023-05-17T05:40:37.565Z,0.20
2023-05-17T05:43:04.980Z,0.60
2023-05-17T05:45:31.971Z,0.32
2023-05-17T05:47:58.964Z,0.35
2023-05-17T05:50:26.083Z,0.20
2023-05-17T05:52:56.319Z,1.00
2023-05-17T05:55:30.911Z,2.92
2023-05-17T05:57:57.831Z,0.43
2023-05-17T06:00:24.752Z,0.10
2023-05-17T06:02:53.639Z,0.65
2023-05-17T06:05:20.790Z,0.15
2023-05-17T06:07:47.739Z,0.68
2023-05-17T06:10:14.687Z,0.45
2023-05-17T06:12:41.595Z,0.45
2023-05-17T06:15:10.262Z,1.50
2023-05-17T06:17:37.482Z,1.70
2023-05-17T06:20:05.299Z,0.47
2023-05-17T06:22:32.241Z,2.00
2023-05-17T06:24:59.314Z,1.65
2023-05-17T06:27:26.736Z,0.38
2023-05-17T06:29:53.843Z,0.88
2023-05-17T06:32:20.752Z,0.30
2023-05-17T06:34:47.834Z,0.40
2023-05-17T06:37:14.733Z,1.35
2023-05-17T06:39:42.585Z,0.63
2023-05-17T06:42:12.111Z,0.55
2023-05-17T06:44:38.977Z,0.47
2023-05-17T06:47:05.882Z,2.38
2023-05-17T06:49:32.859Z,0.03
2023-05-17T06:52:03.513Z,1.60
2023-05-17T06:54:31.087Z,0.40
2023-05-17T06:57:02.499Z,0.30
2023-05-17T06:59:29.779Z,0.45
2023-05-17T07:01:56.834Z,0.38
2023-05-17T07:04:23.992Z,1.25
2023-05-17T07:06:51.104Z,0.75
2023-05-17T07:09:20.599Z,0.80
2023-05-17T07:11:48.077Z,0.10
2023-05-17T07:14:15.198Z,0.32
2023-05-17T07:16:42.559Z,1.20
2023-05-17T07:19:09.575Z,0.45
2023-05-17T07:21:36.656Z,0.10
2023-05-17T07:24:04.665Z,0.85
2023-05-17T07:26:31.996Z,0.57
2023-05-17T07:28:58.944Z,1.58
2023-05-17T07:31:26.345Z,0.47
2023-05-17T07:33:54.418Z,0.75
2023-05-17T07:36:21.405Z,0.70
2023-05-17T07:38:48.350Z,0.55
2023-05-17T07:41:17.254Z,1.05
2023-05-17T07:43:44.230Z,0.70
2023-05-17T07:46:11.218Z,1.55
2023-05-17T07:48:40.478Z,0.73
2023-05-17T07:51:07.556Z,0.35
2023-05-17T07:53:34.492Z,1.05
2023-05-17T07:56:01.478Z,2.10
2023-05-17T07:58:28.458Z,1.55
2023-05-17T08:00:55.435Z,1.77
2023-05-17T08:03:22.688Z,2.10
2023-05-17T08:05:49.625Z,1.35
2023-05-17T08:08:16.659Z,2.58
2023-05-17T08:10:43.651Z,0.52
2023-05-17T08:13:10.629Z,1.08
2023-05-17T08:15:37.515Z,1.52
2023-05-17T08:18:04.915Z,2.03
2023-05-17T08:20:32.071Z,1.90
2023-05-17T08:23:01.953Z,1.73
2023-05-17T08:25:29.162Z,1.83
2023-05-17T08:27:56.312Z,1.83
2023-05-17T08:30:28.969Z,1.60
2023-05-17T08:32:56.925Z,1.48
2023-05-17T08:35:26.256Z,0.35
2023-05-17T08:37:54.741Z,0.68
2023-05-17T08:40:22.296Z,0.43
2023-05-17T08:42:51.103Z,3.13
2023-05-17T08:45:19.064Z,2.05
2023-05-17T08:47:46.889Z,1.95
2023-05-17T08:50:14.446Z,1.63
2023-05-17T08:52:44.844Z,2.13
2023-05-17T08:55:11.869Z,1.30
2023-05-17T08:57:39.442Z,2.70
2023-05-17T09:00:09.455Z,3.10
2023-05-17T09:02:36.764Z,1.77
2023-05-17T09:05:05.625Z,1.90
2023-05-17T09:07:33.242Z,2.08
2023-05-17T09:10:00.258Z,1.35
2023-05-17T09:12:27.410Z,0.77
2023-05-17T09:14:54.362Z,1.67
2023-05-17T09:17:22.112Z,0.68
2023-05-17T09:19:50.443Z,0.85
2023-05-17T09:22:21.584Z,0.80
2023-05-17T09:24:50.230Z,0.40
2023-05-17T09:27:20.063Z,0.40
2023-05-17T09:29:48.012Z,0.82
2023-05-17T09:32:21.102Z,1.35
2023-05-17T09:34:48.862Z,0.82
2023-05-17T09:37:19.783Z,1.13
2023-05-17T09:39:48.200Z,2.03
2023-05-17T09:42:16.911Z,1.13
2023-05-17T09:44:51.215Z,1.20
2023-05-17T09:47:25.169Z,0.43
2023-05-17T09:49:52.276Z,0.57
2023-05-17T09:52:20.875Z,0.60
2023-05-17T09:54:55.428Z,1.15
2023-05-17T09:57:22.926Z,0.60
2023-05-17T09:59:50.650Z,1.15
2023-05-17T10:02:25.827Z,1.13
2023-05-17T10:04:55.748Z,0.60
2023-05-17T10:07:26.173Z,0.40
2023-05-17T10:09:56.437Z,0.30
2023-05-17T10:12:25.766Z,0.70
2023-05-17T10:14:55.953Z,0.40
2023-05-17T10:17:24.554Z,1.63
2023-05-17T10:19:52.679Z,1.27
2023-05-17T10:22:23.758Z,1.85
2023-05-17T10:24:51.931Z,1.17
2023-05-17T10:27:20.952Z,2.40
2023-05-17T10:29:50.679Z,2.40
2023-05-17T10:32:21.661Z,1.85
2023-05-17T10:35:01.500Z,1.55
2023-05-17T10:37:37.118Z,2.00
2023-05-17T10:40:04.673Z,0.38
2023-05-17T10:42:32.106Z,1.10
2023-05-17T10:45:01.665Z,1.80
2023-05-17T10:47:35.495Z,0.30
2023-05-17T10:50:09.157Z,1.02
2023-05-17T10:52:39.531Z,1.67
2023-05-17T10:55:08.677Z,1.00
2023-05-17T11:00:09.183Z,0.63
2023-05-17T11:02:40.685Z,0.63
2023-05-17T11:05:08.220Z,1.80
2023-05-17T11:07:37.595Z,0.57
2023-05-17T11:10:12.470Z,0.80
2023-05-17T11:12:54.034Z,0.57
2023-05-17T11:15:26.514Z,0.28
2023-05-17T11:17:54.359Z,0.22
2023-05-17T11:20:27.600Z,1.00
2023-05-17T11:23:00.309Z,2.22
2023-05-17T11:25:40.879Z,0.73
2023-05-17T11:28:08.908Z,1.08
2023-05-17T11:30:42.032Z,0.45
2023-05-17T11:33:20.561Z,1.13
2023-05-17T11:35:56.035Z,0.30
2023-05-17T11:38:32.682Z,1.08
2023-05-17T11:41:26.678Z,1.38
2023-05-17T11:43:54.614Z,0.50
2023-05-17T11:46:24.261Z,2.55
2023-05-17T11:48:52.823Z,0.95
2023-05-17T11:51:22.584Z,0.32
2023-05-17T11:53:54.401Z,2.58
2023-05-17T11:56:35.582Z,2.40
2023-05-17T11:59:09.657Z,0.82
2023-05-17T12:01:47.716Z,1.70
2023-05-17T12:04:22.938Z,1.25
2023-05-17T12:06:50.193Z,1.63
2023-05-17T12:09:17.921Z,1.58
2023-05-17T12:11:45.063Z,1.20
2023-05-17T12:14:16.775Z,1.75
2023-05-17T12:16:45.664Z,1.40
2023-05-17T12:19:20.269Z,2.65
2023-05-17T12:21:47.439Z,2.35
2023-05-17T12:24:14.714Z,2.45
2023-05-17T12:26:48.319Z,1.83
2023-05-17T12:29:19.392Z,2.35
2023-05-17T12:31:49.573Z,3.90
2023-05-17T12:34:18.213Z,3.72
2023-05-17T12:36:45.781Z,3.05
2023-05-17T12:39:13.931Z,2.08
2023-05-17T12:41:42.042Z,3.58
2023-05-17T12:46:39.559Z,3.53
2023-05-17T12:49:08.553Z,6.90
2023-05-17T12:51:43.882Z,2.28
2023-05-17T12:54:12.419Z,3.83
2023-05-17T12:56:46.779Z,2.72
2023-05-17T12:59:18.820Z,3.42
2023-05-17T13:01:46.985Z,3.83
2023-05-17T13:04:15.861Z,1.85
2023-05-17T13:06:50.305Z,5.15
2023-05-17T13:09:18.826Z,8.20
2023-05-17T13:11:53.259Z,5.10
2023-05-17T13:14:38.310Z,3.60
2023-05-17T13:17:09.974Z,2.75
2023-05-17T13:19:37.517Z,3.20
2023-05-17T13:22:06.145Z,2.67
2023-05-17T13:24:37.832Z,3.92
2023-05-17T13:27:05.795Z,2.13
2023-05-17T13:29:39.468Z,3.67
2023-05-17T13:32:08.990Z,3.50
2023-05-17T13:34:36.481Z,2.60
2023-05-17T13:37:03.893Z,4.88
2023-05-17T13:39:30.981Z,4.47
2023-05-17T13:41:59.063Z,3.72
2023-05-17T13:44:26.408Z,3.33
2023-05-17T13:46:53.400Z,2.33
2023-05-17T13:49:20.422Z,3.00
2023-05-17T13:51:47.451Z,4.22
2023-05-17T13:54:14.494Z,2.67
2023-05-17T13:56:41.721Z,2.50
2023-05-17T13:59:08.677Z,2.50
2023-05-17T14:01:35.691Z,2.92
2023-05-17T14:04:02.707Z,4.78
2023-05-17T14:06:29.939Z,3.28
2023-05-17T14:08:59.415Z,4.63
2023-05-17T14:11:26.469Z,3.42
2023-05-17T14:13:53.397Z,2.53
2023-05-17T14:16:22.393Z,3.53
2023-05-17T14:18:50.063Z,2.97
2023-05-17T14:21:17.182Z,4.28
2023-05-17T14:23:44.128Z,2.15
2023-05-17T14:26:11.931Z,3.08
2023-05-17T14:28:39.248Z,4.28
2023-05-17T14:31:07.751Z,3.35
2023-05-17T14:33:35.482Z,2.65
2023-05-17T14:36:04.198Z,4.63
2023-05-17T14:38:31.597Z,1.70
2023-05-17T14:41:00.805Z,2.17
2023-05-17T14:43:28.410Z,1.80
2023-05-17T14:45:55.522Z,2.15
2023-05-17T14:48:22.654Z,1.90
2023-05-17T14:50:50.013Z,3.92
2023-05-17T14:53:17.300Z,3.08
2023-05-17T14:55:44.933Z,4.18
2023-05-17T14:58:13.728Z,3.08
2023-05-17T15:00:42.097Z,3.25
2023-05-17T15:03:09.408Z,2.65
2023-05-17T15:05:37.891Z,3.08
2023-05-17T15:08:05.198Z,3.42
2023-05-17T15:10:32.353Z,3.35
2023-05-17T15:12:59.396Z,4.60
2023-05-17T15:15:26.344Z,3.58
2023-05-17T15:17:53.278Z,2.75
2023-05-17T15:20:20.666Z,3.92
2023-05-17T15:22:48.567Z,4.03
2023-05-17T15:25:16.196Z,2.05
2023-05-17T15:27:43.404Z,1.75
2023-05-17T15:30:13.293Z,2.28
2023-05-17T15:32:41.014Z,2.45
2023-05-17T15:35:08.327Z,2.15
2023-05-17T15:37:35.352Z,2.42
2023-05-17T15:40:11.022Z,1.50
2023-05-17T15:42:37.960Z,1.85
2023-05-17T15:45:05.755Z,2.13
2023-05-17T15:50:04.055Z,1.58
2023-05-17T15:52:31.001Z,2.30
2023-05-17T15:54:58.042Z,2.08
2023-05-17T15:57:24.976Z,2.35
2023-05-17T15:59:52.414Z,2.13
2023-05-17T16:02:19.408Z,1.45
2023-05-17T16:04:46.483Z,2.35
2023-05-17T16:07:13.393Z,1.27
2023-05-17T16:09:40.388Z,4.15
2023-05-17T16:12:07.730Z,1.58
2023-05-17T16:14:34.696Z,2.38
2023-05-17T16:17:05.808Z,3.63
2023-05-17T16:19:34.418Z,1.77
2023-05-17T16:22:02.010Z,1.88
2023-05-17T16:24:29.003Z,1.55
2023-05-17T16:26:55.933Z,1.42
2023-05-17T16:29:22.836Z,1.17
2023-05-17T16:31:51.509Z,2.83
2023-05-17T16:34:18.733Z,2.33
2023-05-17T16:36:47.883Z,2.03
2023-05-17T16:39:14.898Z,2.03
2023-05-17T16:41:41.875Z,2.88
2023-05-17T16:44:08.848Z,1.90
2023-05-17T16:46:38.024Z,2.55
2023-05-17T16:49:05.125Z,1.30
2023-05-17T16:51:32.118Z,2.60
2023-05-17T16:53:59.038Z,2.22
2023-05-17T16:56:26.817Z,2.70
2023-05-17T16:58:53.780Z,1.33
2023-05-17T17:01:21.277Z,4.63
2023-05-17T17:03:48.481Z,1.77
2023-05-17T17:06:15.472Z,1.85
2023-05-17T17:08:42.510Z,3.10
2023-05-17T17:11:09.508Z,4.60
2023-05-17T17:13:36.472Z,2.78
2023-05-17T17:16:03.622Z,3.25
2023-05-17T17:18:30.718Z,1.17
2023-05-17T17:20:57.591Z,2.80
2023-05-17T17:23:24.488Z,2.72
2023-05-17T17:25:51.414Z,1.00
2023-05-17T17:28:18.316Z,2.25
2023-05-17T17:30:47.489Z,3.30
2023-05-17T17:33:14.454Z,2.17
2023-05-17T17:35:41.417Z,3.88
2023-05-17T17:38:12.509Z,2.33
2023-05-17T17:40:39.471Z,2.13
2023-05-17T17:43:06.439Z,2.20
2023-05-17T17:45:33.337Z,1.42
2023-05-17T17:48:00.390Z,3.13
2023-05-17T17:50:27.593Z,1.30
2023-05-17T17:52:54.715Z,1.27
2023-05-17T17:55:21.753Z,2.08
2023-05-17T17:57:48.691Z,2.35
2023-05-17T18:00:16.490Z,1.27
2023-05-17T18:02:43.533Z,2.08
2023-05-17T18:05:11.533Z,1.65
2023-05-17T18:07:38.686Z,2.13
2023-05-17T18:10:06.265Z,1.73
2023-05-17T18:12:33.226Z,2.38
2023-05-17T18:15:00.166Z,2.05
2023-05-17T18:17:28.525Z,0.88
2023-05-17T18:19:55.557Z,1.30
2023-05-17T18:22:22.516Z,1.75
2023-05-17T18:24:49.721Z,2.75
2023-05-17T18:27:16.891Z,2.47
2023-05-17T18:29:43.963Z,1.48
2023-05-17T18:32:11.056Z,1.63
2023-05-17T18:34:38.057Z,1.67
2023-05-17T18:37:05.113Z,1.92
2023-05-17T18:39:32.296Z,2.33
2023-05-17T18:41:59.503Z,1.15
2023-05-17T18:44:26.405Z,2.67
2023-05-17T18:46:54.229Z,2.58
2023-05-17T18:49:21.498Z,3.95
2023-05-17T18:51:48.501Z,2.13
2023-05-17T18:54:15.491Z,2.42
2023-05-17T18:56:42.437Z,4.55
2023-05-17T18:59:09.411Z,2.60
2023-05-17T19:01:36.978Z,1.77
2023-05-17T19:04:04.229Z,2.80
2023-05-17T19:06:31.912Z,2.47
2023-05-17T19:08:59.208Z,2.50
2023-05-17T19:11:28.687Z,1.90
2023-05-17T19:13:55.856Z,2.08
2023-05-17T19:16:22.869Z,2.15
2023-05-17T19:18:50.305Z,1.73
2023-05-17T19:21:17.479Z,2.50
2023-05-17T19:23:44.776Z,2.30
2023-05-17T19:26:11.790Z,2.15
2023-05-17T19:28:39.959Z,1.80
2023-05-17T19:31:08.393Z,3.00
2023-05-17T19:33:37.725Z,1.60
2023-05-17T19:36:04.940Z,2.25
2023-05-17T19:38:33.310Z,2.20
2023-05-17T19:41:01.601Z,1.95
2023-05-17T19:43:28.667Z,2.50
2023-05-17T19:45:55.878Z,5.75
2023-05-17T19:48:24.283Z,4.75
2023-05-17T19:50:51.671Z,2.33
2023-05-17T19:53:18.705Z,2.80
2023-05-17T19:55:45.672Z,2.40
2023-05-17T19:58:12.566Z,1.58
2023-05-17T20:00:39.617Z,2.67
2023-05-17T20:03:06.627Z,2.30
2023-05-17T20:05:33.725Z,2.70
2023-05-17T20:08:02.699Z,2.40
2023-05-17T20:10:32.815Z,2.67
2023-05-17T20:13:00.004Z,2.50
2023-05-17T20:15:26.967Z,3.10
2023-05-17T20:17:54.018Z,2.92
2023-05-17T20:20:21.064Z,3.75
2023-05-17T20:22:48.361Z,3.03
2023-05-17T20:25:15.257Z,2.72
2023-05-17T20:27:42.289Z,1.63
2023-05-17T20:30:09.892Z,2.65
2023-05-17T20:32:36.950Z,1.95
2023-05-17T20:35:03.973Z,2.42
2023-05-17T20:37:31.464Z,3.30
2023-05-17T20:40:00.085Z,2.28
2023-05-17T20:42:28.260Z,5.95
2023-05-17T20:44:55.621Z,3.20
2023-05-17T20:47:22.873Z,2.33
2023-05-17T20:49:50.433Z,3.20
2023-05-17T20:52:31.315Z,3.08
2023-05-17T20:55:06.112Z,2.10
2023-05-17T20:57:33.145Z,2.42
2023-05-17T21:00:00.131Z,3.83
2023-05-17T21:02:27.184Z,2.58
2023-05-17T21:04:54.801Z,4.90
2023-05-17T21:07:26.530Z,6.00
2023-05-17T21:09:54.185Z,3.17
2023-05-17T21:12:23.187Z,2.72
2023-05-17T21:15:03.682Z,2.97
2023-05-17T21:17:35.262Z,3.45
2023-05-17T21:20:02.257Z,2.03
2023-05-17T21:22:29.177Z,2.13
2023-05-17T21:24:56.200Z,6.30
2023-05-17T21:27:23.153Z,5.13
2023-05-17T21:29:50.030Z,3.53
2023-05-17T21:32:17.230Z,2.88
2023-05-17T21:34:45.023Z,1.42
2023-05-17T21:37:12.178Z,3.08
2023-05-17T21:39:39.958Z,3.95
2023-05-17T21:42:06.933Z,3.38
2023-05-17T21:44:33.834Z,2.35
2023-05-17T21:47:01.161Z,2.10
2023-05-17T21:49:28.648Z,2.45
2023-05-17T21:51:55.606Z,2.45
2023-05-17T21:54:24.577Z,2.35
2023-05-17T21:56:51.813Z,1.50
2023-05-17T21:59:18.836Z,2.30
2023-05-17T22:01:46.010Z,2.38
2023-05-17T22:04:13.027Z,3.05
2023-05-17T22:06:39.904Z,1.60
2023-05-17T22:09:06.867Z,2.25
2023-05-17T22:11:38.304Z,4.15
2023-05-17T22:14:07.491Z,2.60
2023-05-17T22:16:35.652Z,1.23
2023-05-17T22:19:03.922Z,2.97
2023-05-17T22:21:32.061Z,2.92
2023-05-17T22:23:59.582Z,3.40
2023-05-17T22:26:27.858Z,4.20
2023-05-17T22:28:55.826Z,1.65
2023-05-17T22:31:22.937Z,2.63
2023-05-17T22:33:50.512Z,5.72
2023-05-17T22:36:19.148Z,3.28
2023-05-17T22:38:46.781Z,3.72
2023-05-17T22:41:13.811Z,5.32
2023-05-17T22:43:41.745Z,4.13
2023-05-17T22:46:08.682Z,1.90
2023-05-17T22:48:37.526Z,2.45
2023-05-17T22:51:04.797Z,3.35
2023-05-17T22:53:31.870Z,3.22
2023-05-17T22:55:58.990Z,2.88
2023-05-17T22:58:26.039Z,4.20
2023-05-17T23:00:53.413Z,2.33
2023-05-17T23:03:20.692Z,3.25
2023-05-17T23:05:48.135Z,2.85
2023-05-17T23:08:15.668Z,2.30
2023-05-17T23:10:45.996Z,2.10
2023-05-17T23:13:14.019Z,2.53
2023-05-17T23:15:46.645Z,2.72
2023-05-17T23:18:13.758Z,2.28
2023-05-17T23:20:42.180Z,2.78
2023-05-17T23:23:09.250Z,2.17
2023-05-17T23:25:37.407Z,3.63
2023-05-17T23:28:04.767Z,2.55
2023-05-17T23:30:32.581Z,1.88
2023-05-17T23:33:00.300Z,2.88
2023-05-17T23:35:27.508Z,2.70
2023-05-17T23:37:54.586Z,3.88
2023-05-17T23:40:21.682Z,2.35
2023-05-17T23:42:48.610Z,3.03
2023-05-17T23:45:15.620Z,2.30
2023-05-17T23:47:42.578Z,2.83
2023-05-17T23:50:10.491Z,3.30
2023-05-17T23:52:39.079Z,2.80
2023-05-17T23:55:07.457Z,3.15
2023-05-17T23:57:35.418Z,2.47
